sensor_id;sensor_type;location;lat;lon;timestamp;pressure;altitude;pressure_sealevel;temperature;humidity
20755;BME280;26385;48.470;7.938;2022-08-14T00:01:08;99341.19;;;25.70;33.80
20755;BME280;26385;48.470;7.938;2022-08-14T00:03:35;99336.53;;;25.75;34.06
20755;BME280;26385;48.470;7.938;2022-08-14T00:06:02;99329.69;;;25.54;34.44
20755;BME280;26385;48.470;7.938;2022-08-14T00:08:29;99323.03;;;25.30;34.93
20755;BME280;26385;48.470;7.938;2022-08-14T00:10:54;99324.97;;;25.10;35.31
20755;BME280;26385;48.470;7.938;2022-08-14T00:13:22;99327.34;;;24.80;36.10
20755;BME280;26385;48.470;7.938;2022-08-14T00:15:49;99329.88;;;24.83;35.86
20755;BME280;26385;48.470;7.938;2022-08-14T00:18:19;99327.38;;;24.97;35.55
20755;BME280;26385;48.470;7.938;2022-08-14T00:20:46;99325.03;;;25.09;35.73
20755;BME280;26385;48.470;7.938;2022-08-14T00:23:13;99308.38;;;25.07;35.63
20755;BME280;26385;48.470;7.938;2022-08-14T00:25:39;99295.63;;;24.96;35.27
20755;BME280;26385;48.470;7.938;2022-08-14T00:28:07;99295.63;;;24.96;35.14
20755;BME280;26385;48.470;7.938;2022-08-14T00:30:33;99302.28;;;25.05;35.15
20755;BME280;26385;48.470;7.938;2022-08-14T00:32:58;99304.94;;;25.05;35.11
20755;BME280;26385;48.470;7.938;2022-08-14T00:35:24;99308.97;;;25.12;35.05
20755;BME280;26385;48.470;7.938;2022-08-14T00:37:49;99319.16;;;25.19;35.10
20755;BME280;26385;48.470;7.938;2022-08-14T00:40:16;99309.44;;;25.20;35.41
20755;BME280;26385;48.470;7.938;2022-08-14T00:42:42;99304.53;;;25.12;35.46
20755;BME280;26385;48.470;7.938;2022-08-14T00:45:10;99308.03;;;25.13;35.96
20755;BME280;26385;48.470;7.938;2022-08-14T00:47:36;99306.19;;;25.15;36.37
20755;BME280;26385;48.470;7.938;2022-08-14T00:50:04;99307.44;;;25.08;36.54
20755;BME280;26385;48.470;7.938;2022-08-14T00:52:31;99299.00;;;24.99;36.74
20755;BME280;26385;48.470;7.938;2022-08-14T00:54:56;99300.88;;;24.97;37.00
20755;BME280;26385;48.470;7.938;2022-08-14T00:57:27;99305.72;;;24.89;37.11
20755;BME280;26385;48.470;7.938;2022-08-14T00:59:52;99308.81;;;24.80;37.47
20755;BME280;26385;48.470;7.938;2022-08-14T01:02:19;99307.19;;;24.78;37.45
20755;BME280;26385;48.470;7.938;2022-08-14T01:04:50;99298.22;;;24.80;37.61
20755;BME280;26385;48.470;7.938;2022-08-14T01:07:15;99302.81;;;24.77;37.84
20755;BME280;26385;48.470;7.938;2022-08-14T01:09:46;99294.72;;;24.80;37.25
20755;BME280;26385;48.470;7.938;2022-08-14T01:12:12;99290.53;;;24.76;37.36
20755;BME280;26385;48.470;7.938;2022-08-14T01:14:39;99296.38;;;24.65;37.18
20755;BME280;26385;48.470;7.938;2022-08-14T01:17:04;99292.88;;;24.47;36.99
20755;BME280;26385;48.470;7.938;2022-08-14T01:19:30;99286.59;;;24.31;36.97
20755;BME280;26385;48.470;7.938;2022-08-14T01:22:14;99283.44;;;24.05;37.65
20755;BME280;26385;48.470;7.938;2022-08-14T01:24:40;99286.69;;;23.74;38.08
20755;BME280;26385;48.470;7.938;2022-08-14T01:27:05;99274.88;;;23.63;38.31
20755;BME280;26385;48.470;7.938;2022-08-14T01:29:31;99273.91;;;23.65;38.48
20755;BME280;26385;48.470;7.938;2022-08-14T01:32:03;99281.47;;;23.73;38.28
20755;BME280;26385;48.470;7.938;2022-08-14T01:34:29;99280.38;;;23.58;38.74
20755;BME280;26385;48.470;7.938;2022-08-14T01:37:00;99283.38;;;23.69;38.39
20755;BME280;26385;48.470;7.938;2022-08-14T01:39:27;99274.56;;;23.87;38.33
20755;BME280;26385;48.470;7.938;2022-08-14T01:41:52;99272.38;;;23.78;38.60
20755;BME280;26385;48.470;7.938;2022-08-14T01:44:22;99277.59;;;23.61;38.72
20755;BME280;26385;48.470;7.938;2022-08-14T01:46:51;99265.38;;;23.77;38.63
20755;BME280;26385;48.470;7.938;2022-08-14T01:49:19;99257.78;;;23.51;39.11
20755;BME280;26385;48.470;7.938;2022-08-14T01:51:46;99247.00;;;23.55;38.92
20755;BME280;26385;48.470;7.938;2022-08-14T01:54:17;99250.31;;;23.61;38.80
20755;BME280;26385;48.470;7.938;2022-08-14T01:56:50;99243.06;;;23.26;39.67
20755;BME280;26385;48.470;7.938;2022-08-14T01:59:21;99247.13;;;23.34;39.74
20755;BME280;26385;48.470;7.938;2022-08-14T02:01:49;99241.09;;;23.11;39.95
20755;BME280;26385;48.470;7.938;2022-08-14T02:04:18;99241.34;;;23.25;39.57
20755;BME280;26385;48.470;7.938;2022-08-14T02:06:45;99238.09;;;23.39;39.50
20755;BME280;26385;48.470;7.938;2022-08-14T02:09:10;99234.34;;;23.43;39.39
20755;BME280;26385;48.470;7.938;2022-08-14T02:11:36;99237.94;;;23.42;39.51
20755;BME280;26385;48.470;7.938;2022-08-14T02:14:06;99236.38;;;23.38;39.32
20755;BME280;26385;48.470;7.938;2022-08-14T02:16:35;99240.72;;;23.39;39.60
20755;BME280;26385;48.470;7.938;2022-08-14T02:19:23;99237.06;;;23.42;39.10
20755;BME280;26385;48.470;7.938;2022-08-14T02:21:52;99226.63;;;23.20;39.38
20755;BME280;26385;48.470;7.938;2022-08-14T02:24:20;99219.44;;;23.23;39.81
20755;BME280;26385;48.470;7.938;2022-08-14T02:26:45;99216.63;;;23.26;39.39
20755;BME280;26385;48.470;7.938;2022-08-14T02:29:17;99212.22;;;23.27;39.56
20755;BME280;26385;48.470;7.938;2022-08-14T02:31:45;99212.78;;;23.34;39.26
20755;BME280;26385;48.470;7.938;2022-08-14T02:34:15;99212.28;;;23.25;39.65
20755;BME280;26385;48.470;7.938;2022-08-14T02:36:44;99209.88;;;23.21;39.60
20755;BME280;26385;48.470;7.938;2022-08-14T02:39:13;99209.44;;;23.30;39.16
20755;BME280;26385;48.470;7.938;2022-08-14T02:41:38;99219.84;;;23.14;39.96
20755;BME280;26385;48.470;7.938;2022-08-14T02:44:06;99213.41;;;23.20;39.67
20755;BME280;26385;48.470;7.938;2022-08-14T02:46:31;99212.00;;;23.31;39.39
20755;BME280;26385;48.470;7.938;2022-08-14T02:48:57;99209.66;;;23.25;39.93
20755;BME280;26385;48.470;7.938;2022-08-14T02:51:23;99207.94;;;23.24;40.07
20755;BME280;26385;48.470;7.938;2022-08-14T02:53:48;99202.50;;;23.27;40.44
20755;BME280;26385;48.470;7.938;2022-08-14T02:56:15;99202.28;;;23.13;41.22
20755;BME280;26385;48.470;7.938;2022-08-14T02:58:50;99197.56;;;23.20;41.25
20755;BME280;26385;48.470;7.938;2022-08-14T03:01:17;99194.38;;;23.13;41.67
20755;BME280;26385;48.470;7.938;2022-08-14T03:03:44;99206.78;;;23.11;42.38
20755;BME280;26385;48.470;7.938;2022-08-14T03:06:11;99199.41;;;22.99;42.30
20755;BME280;26385;48.470;7.938;2022-08-14T03:08:38;99194.41;;;22.93;42.42
20755;BME280;26385;48.470;7.938;2022-08-14T03:11:05;99191.75;;;22.93;42.34
20755;BME280;26385;48.470;7.938;2022-08-14T03:13:39;99184.06;;;22.88;42.35
20755;BME280;26385;48.470;7.938;2022-08-14T03:16:07;99186.88;;;22.84;42.67
20755;BME280;26385;48.470;7.938;2022-08-14T03:18:32;99177.16;;;22.84;42.76
20755;BME280;26385;48.470;7.938;2022-08-14T03:21:04;99169.50;;;22.78;42.77
20755;BME280;26385;48.470;7.938;2022-08-14T03:23:30;99158.50;;;22.68;42.91
20755;BME280;26385;48.470;7.938;2022-08-14T03:25:59;99160.19;;;22.71;42.76
20755;BME280;26385;48.470;7.938;2022-08-14T03:28:25;99158.50;;;22.68;42.85
20755;BME280;26385;48.470;7.938;2022-08-14T03:30:54;99150.06;;;22.60;42.83
20755;BME280;26385;48.470;7.938;2022-08-14T03:33:19;99144.94;;;22.57;43.09
20755;BME280;26385;48.470;7.938;2022-08-14T03:35:44;99145.72;;;22.59;42.83
20755;BME280;26385;48.470;7.938;2022-08-14T03:38:11;99137.19;;;22.54;43.07
20755;BME280;26385;48.470;7.938;2022-08-14T03:40:39;99130.31;;;22.50;42.91
20755;BME280;26385;48.470;7.938;2022-08-14T03:43:06;99127.75;;;22.48;42.83
20755;BME280;26385;48.470;7.938;2022-08-14T03:45:34;99133.88;;;22.49;42.82
20755;BME280;26385;48.470;7.938;2022-08-14T03:48:00;99134.66;;;22.51;42.82
20755;BME280;26385;48.470;7.938;2022-08-14T03:50:28;99130.56;;;22.44;43.19
20755;BME280;26385;48.470;7.938;2022-08-14T03:52:54;99140.56;;;22.37;43.61
20755;BME280;26385;48.470;7.938;2022-08-14T03:55:19;99147.09;;;22.29;43.88
20755;BME280;26385;48.470;7.938;2022-08-14T03:57:44;99160.72;;;22.18;44.44
20755;BME280;26385;48.470;7.938;2022-08-14T04:00:11;99169.38;;;22.22;44.15
20755;BME280;26385;48.470;7.938;2022-08-14T04:02:39;99173.72;;;22.23;44.29
20755;BME280;26385;48.470;7.938;2022-08-14T04:05:08;99178.09;;;22.24;44.48
20755;BME280;26385;48.470;7.938;2022-08-14T04:07:34;99178.88;;;22.26;44.38
20755;BME280;26385;48.470;7.938;2022-08-14T04:09:59;99180.97;;;22.17;44.86
20755;BME280;26385;48.470;7.938;2022-08-14T04:12:25;99175.69;;;22.17;44.91
20755;BME280;26385;48.470;7.938;2022-08-14T04:14:50;99176.56;;;22.18;44.88
20755;BME280;26385;48.470;7.938;2022-08-14T04:17:19;99163.56;;;22.13;44.80
20755;BME280;26385;48.470;7.938;2022-08-14T04:19:45;99168.22;;;22.07;44.88
20755;BME280;26385;48.470;7.938;2022-08-14T04:22:12;99163.94;;;22.04;45.18
20755;BME280;26385;48.470;7.938;2022-08-14T04:24:38;99163.00;;;22.05;44.68
20755;BME280;26385;48.470;7.938;2022-08-14T04:27:05;99164.88;;;22.03;44.78
20755;BME280;26385;48.470;7.938;2022-08-14T04:29:35;99173.03;;;21.97;45.10
20755;BME280;26385;48.470;7.938;2022-08-14T04:32:01;99164.13;;;22.00;45.02
20755;BME280;26385;48.470;7.938;2022-08-14T04:34:27;99166.09;;;21.95;45.44
20755;BME280;26385;48.470;7.938;2022-08-14T04:36:52;99161.16;;;21.87;45.36
20755;BME280;26385;48.470;7.938;2022-08-14T04:39:36;99160.78;;;21.74;45.62
20755;BME280;26385;48.470;7.938;2022-08-14T04:42:20;99164.50;;;21.69;45.86
20755;BME280;26385;48.470;7.938;2022-08-14T04:45:04;99162.00;;;21.66;46.16
20755;BME280;26385;48.470;7.938;2022-08-14T04:47:30;99168.44;;;21.58;46.50
20755;BME280;26385;48.470;7.938;2022-08-14T04:50:14;99168.31;;;21.40;47.13
20755;BME280;26385;48.470;7.938;2022-08-14T04:52:39;99166.69;;;21.37;47.17
20755;BME280;26385;48.470;7.938;2022-08-14T04:55:04;99175.25;;;21.42;47.21
20755;BME280;26385;48.470;7.938;2022-08-14T04:57:30;99179.59;;;21.43;47.32
20755;BME280;26385;48.470;7.938;2022-08-14T04:59:55;99179.03;;;21.35;47.51
20755;BME280;26385;48.470;7.938;2022-08-14T05:02:21;99171.94;;;21.37;47.70
20755;BME280;26385;48.470;7.938;2022-08-14T05:04:48;99180.16;;;21.29;48.10
20755;BME280;26385;48.470;7.938;2022-08-14T05:07:14;99180.50;;;21.19;48.08
20755;BME280;26385;48.470;7.938;2022-08-14T05:09:39;99180.88;;;21.33;48.07
20755;BME280;26385;48.470;7.938;2022-08-14T05:12:05;99180.78;;;21.36;48.13
20755;BME280;26385;48.470;7.938;2022-08-14T05:14:30;99171.53;;;21.24;48.56
20755;BME280;26385;48.470;7.938;2022-08-14T05:16:56;99172.31;;;21.26;48.29
20755;BME280;26385;48.470;7.938;2022-08-14T05:19:23;99170.34;;;21.33;48.05
20755;BME280;26385;48.470;7.938;2022-08-14T05:21:51;99171.59;;;21.23;48.23
20755;BME280;26385;48.470;7.938;2022-08-14T05:24:20;99168.25;;;21.18;48.72
20755;BME280;26385;48.470;7.938;2022-08-14T05:26:45;99166.06;;;21.30;48.19
20755;BME280;26385;48.470;7.938;2022-08-14T05:29:10;99162.34;;;21.36;48.41
20755;BME280;26385;48.470;7.938;2022-08-14T05:31:36;99159.34;;;21.45;48.02
20755;BME280;26385;48.470;7.938;2022-08-14T05:34:07;99168.19;;;21.43;48.12
20755;BME280;26385;48.470;7.938;2022-08-14T05:36:34;99164.03;;;21.59;48.04
20755;BME280;26385;48.470;7.938;2022-08-14T05:39:00;99158.81;;;21.79;48.02
20755;BME280;26385;48.470;7.938;2022-08-14T05:41:25;99162.41;;;21.99;47.59
20755;BME280;26385;48.470;7.938;2022-08-14T05:43:50;99150.31;;;22.15;47.28
20755;BME280;26385;48.470;7.938;2022-08-14T05:46:18;99145.50;;;22.25;46.84
20755;BME280;26385;48.470;7.938;2022-08-14T05:48:47;99146.44;;;22.24;47.18
20755;BME280;26385;48.470;7.938;2022-08-14T05:51:13;99135.72;;;22.47;47.26
20755;BME280;26385;48.470;7.938;2022-08-14T05:53:38;99140.16;;;22.86;46.50
20755;BME280;26385;48.470;7.938;2022-08-14T05:56:04;99139.53;;;23.18;45.77
20755;BME280;26385;48.470;7.938;2022-08-14T05:58:29;99134.13;;;23.57;44.72
20755;BME280;26385;48.470;7.938;2022-08-14T06:00:54;99129.44;;;23.81;44.05
20755;BME280;26385;48.470;7.938;2022-08-14T06:03:22;99122.50;;;23.96;43.97
20755;BME280;26385;48.470;7.938;2022-08-14T06:05:50;99114.03;;;24.07;43.47
20755;BME280;26385;48.470;7.938;2022-08-14T06:08:28;99106.50;;;23.99;43.15
20755;BME280;26385;48.470;7.938;2022-08-14T06:10:57;99101.66;;;23.90;43.56
20755;BME280;26385;48.470;7.938;2022-08-14T06:13:28;99088.34;;;23.92;43.61
20755;BME280;26385;48.470;7.938;2022-08-14T06:15:53;99079.72;;;24.05;43.62
20755;BME280;26385;48.470;7.938;2022-08-14T06:18:18;99076.25;;;24.21;43.21
20755;BME280;26385;48.470;7.938;2022-08-14T06:20:44;99071.84;;;24.38;42.85
20755;BME280;26385;48.470;7.938;2022-08-14T06:23:09;99081.59;;;24.54;42.50
20755;BME280;26385;48.470;7.938;2022-08-14T06:25:35;99066.50;;;24.56;42.09
20755;BME280;26385;48.470;7.938;2022-08-14T06:28:00;99069.22;;;24.70;42.16
20755;BME280;26385;48.470;7.938;2022-08-14T06:30:29;99072.75;;;24.86;41.85
20755;BME280;26385;48.470;7.938;2022-08-14T06:32:55;99072.06;;;24.98;41.93
20755;BME280;26385;48.470;7.938;2022-08-14T06:35:21;99076.97;;;25.06;41.58
20755;BME280;26385;48.470;7.938;2022-08-14T06:37:52;99074.91;;;25.27;41.07
20755;BME280;26385;48.470;7.938;2022-08-14T06:40:23;99075.84;;;25.42;40.82
20755;BME280;26385;48.470;7.938;2022-08-14T06:42:49;99077.66;;;25.55;40.59
20755;BME280;26385;48.470;7.938;2022-08-14T06:45:15;99078.34;;;25.75;40.37
20755;BME280;26385;48.470;7.938;2022-08-14T06:47:42;99084.47;;;25.91;39.91
20755;BME280;26385;48.470;7.938;2022-08-14T06:50:14;99094.22;;;26.05;39.82
20755;BME280;26385;48.470;7.938;2022-08-14T06:52:40;99087.50;;;26.14;39.05
20755;BME280;26385;48.470;7.938;2022-08-14T06:55:07;99077.97;;;26.25;38.79
20755;BME280;26385;48.470;7.938;2022-08-14T06:57:35;99077.06;;;26.41;38.40
20755;BME280;26385;48.470;7.938;2022-08-14T07:00:04;99087.97;;;26.50;38.24
20755;BME280;26385;48.470;7.938;2022-08-14T07:02:30;99080.28;;;26.60;37.73
20755;BME280;26385;48.470;7.938;2022-08-14T07:05:14;99094.09;;;26.79;37.75
20755;BME280;26385;48.470;7.938;2022-08-14T07:07:58;99086.97;;;26.94;37.57
20755;BME280;26385;48.470;7.938;2022-08-14T07:10:23;99088.97;;;27.05;37.11
20755;BME280;26385;48.470;7.938;2022-08-14T07:12:48;99080.97;;;27.19;37.19
20755;BME280;26385;48.470;7.938;2022-08-14T07:15:14;99076.66;;;27.31;37.15
20755;BME280;26385;48.470;7.938;2022-08-14T07:17:46;99088.09;;;27.45;36.30
20755;BME280;26385;48.470;7.938;2022-08-14T07:20:12;99087.88;;;27.48;36.95
20755;BME280;26385;48.470;7.938;2022-08-14T07:22:37;99084.81;;;27.55;36.90
20755;BME280;26385;48.470;7.938;2022-08-14T07:25:02;99091.19;;;27.66;36.26
20755;BME280;26385;48.470;7.938;2022-08-14T07:27:28;99086.94;;;27.76;36.16
20755;BME280;26385;48.470;7.938;2022-08-14T07:29:53;99088.25;;;27.84;35.97
20755;BME280;26385;48.470;7.938;2022-08-14T07:32:18;99086.22;;;27.87;36.62
20755;BME280;26385;48.470;7.938;2022-08-14T07:34:43;99086.03;;;28.03;36.00
20755;BME280;26385;48.470;7.938;2022-08-14T07:37:09;99082.50;;;28.15;35.39
20755;BME280;26385;48.470;7.938;2022-08-14T07:39:34;99076.47;;;28.26;35.06
20755;BME280;26385;48.470;7.938;2022-08-14T07:41:59;99065.09;;;28.37;35.17
20755;BME280;26385;48.470;7.938;2022-08-14T07:44:25;99071.34;;;28.48;35.18
20755;BME280;26385;48.470;7.938;2022-08-14T07:46:50;99071.03;;;28.53;35.38
20755;BME280;26385;48.470;7.938;2022-08-14T07:49:16;99073.59;;;28.67;34.70
20755;BME280;26385;48.470;7.938;2022-08-14T07:51:41;99072.69;;;28.79;34.50
20755;BME280;26385;48.470;7.938;2022-08-14T07:54:06;99078.78;;;28.94;34.54
20755;BME280;26385;48.470;7.938;2022-08-14T07:56:32;99083.31;;;29.05;34.26
20755;BME280;26385;48.470;7.938;2022-08-14T07:58:57;99080.50;;;29.19;34.14
20755;BME280;26385;48.470;7.938;2022-08-14T08:01:23;99085.56;;;29.35;33.88
20755;BME280;26385;48.470;7.938;2022-08-14T08:03:48;99088.53;;;29.43;33.52
20755;BME280;26385;48.470;7.938;2022-08-14T08:06:15;99085.81;;;29.56;33.59
20755;BME280;26385;48.470;7.938;2022-08-14T08:08:42;99079.28;;;29.60;33.00
20755;BME280;26385;48.470;7.938;2022-08-14T08:11:08;99085.00;;;29.66;33.07
20755;BME280;26385;48.470;7.938;2022-08-14T08:13:36;99083.97;;;29.80;32.41
20755;BME280;26385;48.470;7.938;2022-08-14T08:16:05;99081.19;;;29.93;32.48
20755;BME280;26385;48.470;7.938;2022-08-14T08:18:32;99079.28;;;29.95;32.31
20755;BME280;26385;48.470;7.938;2022-08-14T08:20:58;99078.53;;;29.93;32.22
20755;BME280;26385;48.470;7.938;2022-08-14T08:23:23;99082.56;;;29.98;31.97
20755;BME280;26385;48.470;7.938;2022-08-14T08:25:51;99094.25;;;30.09;31.95
20755;BME280;26385;48.470;7.938;2022-08-14T08:28:19;99096.22;;;30.18;31.79
20755;BME280;26385;48.470;7.938;2022-08-14T08:30:51;99096.63;;;30.36;31.27
20755;BME280;26385;48.470;7.938;2022-08-14T08:33:18;99096.75;;;30.45;31.07
20755;BME280;26385;48.470;7.938;2022-08-14T08:35:44;99092.16;;;30.47;30.96
20755;BME280;26385;48.470;7.938;2022-08-14T08:38:12;99080.59;;;30.47;31.20
20755;BME280;26385;48.470;7.938;2022-08-14T08:40:40;99062.38;;;30.52;31.21
20755;BME280;26385;48.470;7.938;2022-08-14T08:43:19;99052.69;;;30.73;31.06
20755;BME280;26385;48.470;7.938;2022-08-14T08:45:52;99049.50;;;30.91;30.79
20755;BME280;26385;48.470;7.938;2022-08-14T08:48:18;99049.34;;;31.03;30.45
20755;BME280;26385;48.470;7.938;2022-08-14T08:50:43;99039.59;;;31.14;30.42
20755;BME280;26385;48.470;7.938;2022-08-14T08:53:09;99052.72;;;31.28;29.88
20755;BME280;26385;48.470;7.938;2022-08-14T08:55:40;99050.34;;;31.46;29.62
20755;BME280;26385;48.470;7.938;2022-08-14T08:58:08;99055.97;;;31.63;29.42
20755;BME280;26385;48.470;7.938;2022-08-14T09:00:36;99051.06;;;31.80;29.51
20755;BME280;26385;48.470;7.938;2022-08-14T09:03:11;99039.28;;;31.92;28.60
20755;BME280;26385;48.470;7.938;2022-08-14T09:05:47;99034.53;;;31.96;28.04
20755;BME280;26385;48.470;7.938;2022-08-14T09:08:26;99036.47;;;31.93;28.57
20755;BME280;26385;48.470;7.938;2022-08-14T09:10:53;99032.75;;;32.06;28.04
20755;BME280;26385;48.470;7.938;2022-08-14T09:13:20;99028.34;;;32.26;28.09
20755;BME280;26385;48.470;7.938;2022-08-14T09:15:47;99019.00;;;32.41;27.55
20755;BME280;26385;48.470;7.938;2022-08-14T09:18:15;99012.53;;;32.53;27.54
20755;BME280;26385;48.470;7.938;2022-08-14T09:20:42;99013.56;;;32.62;26.96
20755;BME280;26385;48.470;7.938;2022-08-14T09:23:09;99015.44;;;32.71;27.48
20755;BME280;26385;48.470;7.938;2022-08-14T09:25:36;99003.31;;;32.76;26.96
20755;BME280;26385;48.470;7.938;2022-08-14T09:28:03;98997.13;;;32.86;26.98
20755;BME280;26385;48.470;7.938;2022-08-14T09:30:31;98993.06;;;33.01;26.25
20755;BME280;26385;48.470;7.938;2022-08-14T09:38:27;98992.69;;;33.44;25.54
20755;BME280;26385;48.470;7.938;2022-08-14T09:46:53;98988.16;;;33.64;25.35
20755;BME280;26385;48.470;7.938;2022-08-14T09:49:35;98972.56;;;33.77;25.15
20755;BME280;26385;48.470;7.938;2022-08-14T09:52:12;98972.69;;;33.95;25.10
20755;BME280;26385;48.470;7.938;2022-08-14T09:54:40;98974.75;;;34.11;24.11
20755;BME280;26385;48.470;7.938;2022-08-14T09:57:08;98958.31;;;34.24;24.21
20755;BME280;26385;48.470;7.938;2022-08-14T09:59:43;98956.63;;;34.23;24.91
20755;BME280;26385;48.470;7.938;2022-08-14T10:02:30;98964.78;;;34.40;24.88
20755;BME280;26385;48.470;7.938;2022-08-14T10:05:06;98954.22;;;34.57;24.33
20755;BME280;26385;48.470;7.938;2022-08-14T10:07:36;98954.00;;;34.68;24.19
20755;BME280;26385;48.470;7.938;2022-08-14T10:10:26;98955.53;;;34.70;23.84
20755;BME280;26385;48.470;7.938;2022-08-14T10:12:52;98963.94;;;34.85;23.45
20755;BME280;26385;48.470;7.938;2022-08-14T10:15:19;98963.91;;;34.67;22.30
20755;BME280;26385;48.470;7.938;2022-08-14T10:17:46;98953.25;;;34.38;22.70
20755;BME280;26385;48.470;7.938;2022-08-14T10:20:13;98947.09;;;34.56;22.45
20755;BME280;26385;48.470;7.938;2022-08-14T10:22:39;98946.34;;;34.36;22.39
20755;BME280;26385;48.470;7.938;2022-08-14T10:25:12;98941.38;;;34.68;22.11
20755;BME280;26385;48.470;7.938;2022-08-14T10:27:39;98948.28;;;34.98;21.76
20755;BME280;26385;48.470;7.938;2022-08-14T10:30:12;98948.13;;;35.18;21.98
20755;BME280;26385;48.470;7.938;2022-08-14T10:32:45;98951.34;;;35.39;21.23
20755;BME280;26385;48.470;7.938;2022-08-14T10:35:12;98948.94;;;35.54;20.80
20755;BME280;26385;48.470;7.938;2022-08-14T10:37:45;98942.59;;;35.63;21.28
20755;BME280;26385;48.470;7.938;2022-08-14T10:40:26;98940.56;;;35.83;21.28
20755;BME280;26385;48.470;7.938;2022-08-14T10:42:52;98940.50;;;35.75;20.65
20755;BME280;26385;48.470;7.938;2022-08-14T10:45:20;98939.72;;;35.83;20.76
20755;BME280;26385;48.470;7.938;2022-08-14T10:47:47;98945.63;;;35.86;20.86
20755;BME280;26385;48.470;7.938;2022-08-14T10:50:14;98944.75;;;36.03;20.51
20755;BME280;26385;48.470;7.938;2022-08-14T10:52:39;98934.03;;;36.20;20.48
20755;BME280;26385;48.470;7.938;2022-08-14T10:55:07;98936.66;;;36.03;20.04
20755;BME280;26385;48.470;7.938;2022-08-14T10:57:44;98932.16;;;35.86;20.02
20755;BME280;26385;48.470;7.938;2022-08-14T11:00:13;98936.19;;;35.82;19.91
20755;BME280;26385;48.470;7.938;2022-08-14T11:02:40;98930.53;;;35.93;20.23
20755;BME280;26385;48.470;7.938;2022-08-14T11:07:42;98928.59;;;36.12;19.63
20755;BME280;26385;48.470;7.938;2022-08-14T11:10:18;98932.78;;;35.80;20.77
20755;BME280;26385;48.470;7.938;2022-08-14T11:12:49;98931.56;;;35.92;20.37
20755;BME280;26385;48.470;7.938;2022-08-14T11:15:21;98926.34;;;35.73;20.35
20755;BME280;26385;48.470;7.938;2022-08-14T11:17:48;98934.59;;;35.71;20.44
20755;BME280;26385;48.470;7.938;2022-08-14T11:20:16;98932.44;;;35.49;20.32
20755;BME280;26385;48.470;7.938;2022-08-14T11:22:42;98936.81;;;35.50;20.37
20755;BME280;26385;48.470;7.938;2022-08-14T11:25:10;98934.22;;;35.40;20.18
20755;BME280;26385;48.470;7.938;2022-08-14T11:27:40;98917.06;;;35.67;20.43
20755;BME280;26385;48.470;7.938;2022-08-14T11:30:12;98924.97;;;35.69;20.23
20755;BME280;26385;48.470;7.938;2022-08-14T11:32:39;98921.28;;;35.96;20.00
20755;BME280;26385;48.470;7.938;2022-08-14T11:35:10;98904.22;;;36.21;19.76
20755;BME280;26385;48.470;7.938;2022-08-14T11:37:36;98903.47;;;36.37;19.78
20755;BME280;26385;48.470;7.938;2022-08-14T11:40:03;98907.22;;;36.52;19.85
20755;BME280;26385;48.470;7.938;2022-08-14T11:42:29;98911.22;;;36.48;19.32
20755;BME280;26385;48.470;7.938;2022-08-14T11:45:01;98895.75;;;36.50;19.76
20755;BME280;26385;48.470;7.938;2022-08-14T11:47:31;98897.13;;;36.62;19.70
20755;BME280;26385;48.470;7.938;2022-08-14T11:49:57;98885.66;;;36.69;19.22
20755;BME280;26385;48.470;7.938;2022-08-14T11:52:32;98884.31;;;36.81;18.90
20755;BME280;26385;48.470;7.938;2022-08-14T11:54:58;98893.09;;;36.83;18.78
20755;BME280;26385;48.470;7.938;2022-08-14T11:57:24;98891.75;;;36.79;18.78
20755;BME280;26385;48.470;7.938;2022-08-14T12:00:04;98889.03;;;36.79;18.34
20755;BME280;26385;48.470;7.938;2022-08-14T12:02:31;98878.63;;;36.84;18.39
20755;BME280;26385;48.470;7.938;2022-08-14T12:04:56;98882.81;;;36.78;18.54
20755;BME280;26385;48.470;7.938;2022-08-14T12:07:22;98876.41;;;36.79;19.04
20755;BME280;26385;48.470;7.938;2022-08-14T12:09:52;98888.34;;;36.60;19.40
20755;BME280;26385;48.470;7.938;2022-08-14T12:12:19;98876.63;;;36.35;19.14
20755;BME280;26385;48.470;7.938;2022-08-14T12:14:55;98884.78;;;36.09;19.45
20755;BME280;26385;48.470;7.938;2022-08-14T12:17:23;98881.56;;;35.80;19.57
20755;BME280;26385;48.470;7.938;2022-08-14T12:19:54;98880.94;;;35.34;19.84
20755;BME280;26385;48.470;7.938;2022-08-14T12:22:37;98876.78;;;35.40;19.18
20755;BME280;26385;48.470;7.938;2022-08-14T12:25:05;98871.09;;;35.43;19.17
20755;BME280;26385;48.470;7.938;2022-08-14T12:27:45;98881.19;;;35.41;19.84
20755;BME280;26385;48.470;7.938;2022-08-14T12:30:32;98878.41;;;35.33;19.82
20755;BME280;26385;48.470;7.938;2022-08-14T12:32:58;98872.13;;;35.24;19.45
20755;BME280;26385;48.470;7.938;2022-08-14T12:35:41;98877.28;;;35.17;19.24
20755;BME280;26385;48.470;7.938;2022-08-14T12:38:08;98889.16;;;35.07;20.03
20755;BME280;26385;48.470;7.938;2022-08-14T12:40:47;98881.19;;;34.87;20.42
20755;BME280;26385;48.470;7.938;2022-08-14T12:43:14;98874.69;;;35.08;20.05
20755;BME280;26385;48.470;7.938;2022-08-14T12:45:48;98872.69;;;35.10;20.59
20755;BME280;26385;48.470;7.938;2022-08-14T12:48:15;98865.69;;;34.99;20.56
20755;BME280;26385;48.470;7.938;2022-08-14T12:50:41;98863.66;;;35.19;20.46
20755;BME280;26385;48.470;7.938;2022-08-14T12:53:08;98862.06;;;35.08;20.65
20755;BME280;26385;48.470;7.938;2022-08-14T12:55:35;98862.00;;;35.00;20.48
20755;BME280;26385;48.470;7.938;2022-08-14T12:58:03;98866.47;;;34.91;20.24
20755;BME280;26385;48.470;7.938;2022-08-14T13:00:34;98867.59;;;34.71;20.33
20755;BME280;26385;48.470;7.938;2022-08-14T13:03:00;98869.91;;;34.38;20.95
20755;BME280;26385;48.470;7.938;2022-08-14T13:05:28;98859.81;;;34.50;21.23
20755;BME280;26385;48.470;7.938;2022-08-14T13:07:57;98857.81;;;34.70;20.95
20755;BME280;26385;48.470;7.938;2022-08-14T13:10:23;98861.16;;;34.82;20.45
20755;BME280;26385;48.470;7.938;2022-08-14T13:12:53;98855.06;;;34.97;20.89
20755;BME280;26385;48.470;7.938;2022-08-14T13:15:18;98849.91;;;34.51;21.54
20755;BME280;26385;48.470;7.938;2022-08-14T13:17:46;98850.75;;;34.51;21.42
20755;BME280;26385;48.470;7.938;2022-08-14T13:20:14;98847.94;;;34.25;21.68